Houston, TX

10:52 AM CDT on October 18, 2017 (GMT -0500)
Houston

Weather History for KTME - January, 2013

Change the Weather History Date:

Monday, January 28, 2013

  Actual Average (KSGR) Record (KSGR)
Temperature  
Mean Temperature 76 °F -  
Max Temperature 84 °F 66 °F 83 °F (1972)
Min Temperature 68 °F 44 °F 28 °F (1948)
Cooling Degree Days 11    
Growing Degree Days 26 (Base 50)    
Moisture  
Dew Point 66 °F    
Average Humidity 82    
Maximum Humidity 100    
Minimum Humidity 37    
Precipitation  
Precipitation 0.00 in - - ()
Sea Level Pressure  
Sea Level Pressure 30.04 in    
Wind  
Wind Speed 14 mph (SSE)    
Max Wind Speed 23 mph    
Max Gust Speed 29 mph    
Visibility 8 miles    
Events      
Averages and records for this station are not official NWS values.
T = Trace of Precipitation, MM = Missing Value Source: NWS Daily Summary

Daily Weather History Graph

Daily Weather History Graph

Search for Another Location

Airport or City:

Trip Planner

Search our weather history database for the weather conditions in past years. The results will help you decide how hot, cold, wet, or windy it might be!

Date:

Astronomy

Jan. 28, 2013 Rise Set
Actual Time 7:15 AM CST 5:58 PM CST
Civil Twilight 6:50 AM CST 6:23 PM CST
Nautical Twilight 6:21 AM CST 6:51 PM CST
Astronomical Twilight 5:53 AM CST 7:20 PM CST
Moon 7:41 PM CST (1/28) 7:52 AM CST (1/28)
Length of Visible Light 11h 32m
Length of Day
10h 42m
Full, 98% of the Moon is Illuminated
Jan 28
Full
Feb 3
Last Quarter
Feb 10
New
Feb 17
First Quarter
Feb 25
Full

Hourly Weather History & Observations

Time (CST) Temp. Heat Index Dew Point Humidity Pressure Visibility Wind Dir Wind Speed Gust Speed Precip Events Conditions
12:15 AM 69.8 °F - 68.0 °F 94% 30.08 in 8.0 mi SE 13.8 mph - N/A   Overcast
12:35 AM 68.0 °F - 68.0 °F 100% 30.08 in 8.0 mi SE 12.7 mph - N/A   Overcast
12:55 AM 68.0 °F - 68.0 °F 100% 30.09 in 8.0 mi SSE 13.8 mph - N/A   Overcast
1:15 AM 68.0 °F - 68.0 °F 100% 30.09 in 9.0 mi SSE 15.0 mph - N/A   Overcast
1:35 AM 68.0 °F - 66.2 °F 94% 30.09 in 8.0 mi SSE 11.5 mph - N/A   Overcast
1:55 AM 68.0 °F - 66.2 °F 94% 30.09 in 8.0 mi SSE 11.5 mph - N/A   Overcast
2:15 AM 68.0 °F - 66.2 °F 94% 30.09 in 8.0 mi SSE 10.4 mph - N/A   Overcast
2:35 AM 68.0 °F - 66.2 °F 94% 30.08 in 8.0 mi SE 11.5 mph 17.3 mph N/A   Overcast
2:55 AM 68.0 °F - 66.2 °F 94% 30.08 in 8.0 mi SE 10.4 mph - N/A   Overcast
3:15 AM 68.0 °F - 68.0 °F 100% 30.07 in 8.0 mi SE 10.4 mph - N/A   Overcast
3:35 AM 68.0 °F - 68.0 °F 100% 30.07 in 8.0 mi SE 11.5 mph - N/A   Overcast
3:55 AM 68.0 °F - 68.0 °F 100% 30.07 in 8.0 mi SE 11.5 mph - N/A   Overcast
4:15 AM 68.0 °F - 68.0 °F 100% 30.07 in 8.0 mi SSE 11.5 mph 16.1 mph N/A   Overcast
4:35 AM 68.0 °F - 68.0 °F 100% 30.07 in 8.0 mi SSE 11.5 mph - N/A   Overcast
4:55 AM 68.0 °F - 68.0 °F 100% 30.06 in 7.0 mi SE 11.5 mph - N/A   Overcast
5:15 AM 68.0 °F - 68.0 °F 100% 30.06 in 7.0 mi SE 10.4 mph - N/A   Overcast
5:35 AM 68.0 °F - 68.0 °F 100% 30.07 in 7.0 mi SE 9.2 mph - N/A   Overcast
5:55 AM 68.0 °F - 68.0 °F 100% 30.07 in 7.0 mi SE 10.4 mph - N/A   Overcast
6:15 AM 68.0 °F - 68.0 °F 100% 30.08 in 7.0 mi SSE 10.4 mph - N/A   Overcast
6:35 AM 68.0 °F - 68.0 °F 100% 30.09 in 7.0 mi SSE 9.2 mph - N/A   Overcast
6:55 AM 68.0 °F - 68.0 °F 100% 30.09 in 7.0 mi SSE 8.1 mph - N/A   Overcast
7:35 AM 68.0 °F - 68.0 °F 100% 30.10 in 5.0 mi SSE 8.1 mph - N/A   Overcast
7:55 AM 68.0 °F - 68.0 °F 100% 30.10 in 5.0 mi SSE 8.1 mph - N/A   Overcast
8:15 AM 69.8 °F - 68.0 °F 94% 30.10 in 5.0 mi SSE 9.2 mph - N/A   Mostly Cloudy
8:35 AM 69.8 °F - 68.0 °F 94% 30.10 in 5.0 mi SE 11.5 mph - N/A   Overcast
8:55 AM 71.6 °F - 68.0 °F 88% 30.11 in 5.0 mi SSE 11.5 mph - N/A   Overcast
9:35 AM 71.6 °F - 68.0 °F 88% 30.12 in 6.0 mi SSE 12.7 mph - N/A   Overcast
9:55 AM 73.4 °F - 68.0 °F 83% 30.12 in 7.0 mi SSE 15.0 mph - N/A   Overcast
10:15 AM 73.4 °F - 68.0 °F 83% 30.12 in 7.0 mi SSE 12.7 mph - N/A   Overcast
10:35 AM 73.4 °F - 66.2 °F 78% 30.11 in 7.0 mi SSE 15.0 mph 20.7 mph N/A   Overcast
10:55 AM 75.2 °F - 66.2 °F 73% 30.11 in 8.0 mi SSE 17.3 mph 20.7 mph N/A   Overcast
11:15 AM 75.2 °F - 64.4 °F 69% 30.10 in 9.0 mi SSE 15.0 mph 20.7 mph N/A   Overcast
11:35 AM 75.2 °F - 64.4 °F 69% 30.10 in 8.0 mi SSE 16.1 mph - N/A   Overcast
11:55 AM 77.0 °F - 62.6 °F 61% 30.09 in 9.0 mi SSE 18.4 mph 24.2 mph N/A   Overcast
12:15 PM 78.8 °F - 60.8 °F 54% 30.07 in 9.0 mi SSE 16.1 mph 23.0 mph N/A   Overcast
12:35 PM 80.6 °F 81.1 °F 59.0 °F 48% 30.06 in 10.0 mi SSE 21.9 mph 27.6 mph N/A   Overcast
12:55 PM 80.6 °F 81.1 °F 59.0 °F 48% 30.04 in 10.0 mi SSE 13.8 mph 28.8 mph N/A   Overcast
1:15 PM 80.6 °F 81.1 °F 59.0 °F 48% 30.03 in 10.0 mi SSE 19.6 mph 26.5 mph N/A   Overcast
1:35 PM 80.6 °F 81.1 °F 59.0 °F 48% 30.02 in 10.0 mi SSE 17.3 mph 24.2 mph N/A   Overcast
1:55 PM 82.4 °F 82.5 °F 59.0 °F 45% 30.01 in 10.0 mi SSE 17.3 mph 25.3 mph N/A   Overcast
2:15 PM 84.2 °F 83.0 °F 55.4 °F 37% 30.00 in 10.0 mi SSE 17.3 mph 25.3 mph N/A   Overcast
2:35 PM 80.6 °F 80.5 °F 55.4 °F 42% 30.00 in 10.0 mi South 23.0 mph 26.5 mph N/A   Mostly Cloudy
2:55 PM 80.6 °F 81.1 °F 59.0 °F 48% 30.00 in 10.0 mi South 19.6 mph - N/A   Overcast
3:15 PM 80.6 °F 81.8 °F 62.6 °F 54% 30.00 in 9.0 mi SSE 19.6 mph 28.8 mph N/A   Overcast
3:35 PM 78.8 °F - 62.6 °F 57% 29.99 in 10.0 mi SSE 20.7 mph - N/A   Mostly Cloudy
3:55 PM 80.6 °F 82.3 °F 64.4 °F 58% 29.99 in 10.0 mi SSE 19.6 mph 27.6 mph N/A   Partly Cloudy
4:15 PM 77.0 °F - 64.4 °F 65% 29.99 in 10.0 mi SSE 19.6 mph 28.8 mph N/A   Scattered Clouds
4:35 PM 75.2 °F - 64.4 °F 69% 29.99 in 9.0 mi SSE 16.1 mph 26.5 mph N/A   Scattered Clouds
4:55 PM 75.2 °F - 64.4 °F 69% 29.99 in 8.0 mi SSE 16.1 mph 24.2 mph N/A   Scattered Clouds
5:15 PM 75.2 °F - 64.4 °F 69% 29.99 in 9.0 mi SSE 21.9 mph 28.8 mph N/A   Scattered Clouds
5:35 PM 75.2 °F - 64.4 °F 69% 29.98 in 9.0 mi SSE 15.0 mph 24.2 mph N/A   Mostly Cloudy
5:55 PM 73.4 °F - 66.2 °F 78% 29.98 in 9.0 mi SSE 15.0 mph 18.4 mph N/A   Mostly Cloudy
6:15 PM 73.4 °F - 66.2 °F 78% 29.98 in 10.0 mi SE 12.7 mph - N/A   Overcast
6:35 PM 73.4 °F - 66.2 °F 78% 29.98 in 10.0 mi SE 15.0 mph 19.6 mph N/A   Overcast
6:55 PM 73.4 °F - 66.2 °F 78% 29.98 in 10.0 mi SE 15.0 mph 20.7 mph N/A   Overcast
7:15 PM 71.6 °F - 68.0 °F 88% 29.98 in 9.0 mi SE 16.1 mph 19.6 mph N/A   Overcast
7:35 PM 71.6 °F - 68.0 °F 88% 29.99 in 9.0 mi SE 18.4 mph - N/A   Overcast
7:55 PM 71.6 °F - 68.0 °F 88% 29.99 in 8.0 mi SE 15.0 mph 20.7 mph N/A   Mostly Cloudy
8:15 PM 71.6 °F - 68.0 °F 88% 29.99 in 8.0 mi SE 15.0 mph - N/A   Mostly Cloudy
8:35 PM 71.6 °F - 68.0 °F 88% 30.00 in 8.0 mi SSE 15.0 mph - N/A   Overcast
8:55 PM 71.6 °F - 68.0 °F 88% 30.00 in 8.0 mi SE 15.0 mph - N/A   Mostly Cloudy
9:15 PM 71.6 °F - 68.0 °F 88% 30.00 in 8.0 mi SE 15.0 mph 18.4 mph N/A   Overcast
9:35 PM 71.6 °F - 68.0 °F 88% 30.00 in 7.0 mi SSE 13.8 mph 17.3 mph N/A   Mostly Cloudy
9:55 PM 71.6 °F - 69.8 °F 94% 29.99 in 7.0 mi SSE 11.5 mph - N/A   Mostly Cloudy
10:15 PM 71.6 °F - 69.8 °F 94% 29.99 in 7.0 mi SE 13.8 mph - N/A   Mostly Cloudy
10:35 PM 71.6 °F - 69.8 °F 94% 29.98 in 7.0 mi SE 13.8 mph - N/A   Mostly Cloudy
10:55 PM 71.6 °F - 69.8 °F 94% 29.97 in 7.0 mi SE 15.0 mph 18.4 mph N/A   Mostly Cloudy
11:15 PM 71.6 °F - 69.8 °F 94% 29.97 in 7.0 mi SE 13.8 mph 20.7 mph N/A   Mostly Cloudy
11:35 PM 71.6 °F - 69.8 °F 94% 29.97 in 7.0 mi SE 16.1 mph 23.0 mph N/A   Overcast
11:55 PM 71.6 °F - 69.8 °F 94% 29.97 in 6.0 mi SE 15.0 mph 20.7 mph N/A   Overcast